Tiempo atmosférico en la estación meteorológica de Valsequillo, Córdoba (575 m.)



Fecha
DESCASC
Temp. máxima en grados centígrados (hora)
DESCASC
Temp. mínima en grados centígrados (hora)
DESCASC
Temp. media en grados centígrados
DESCASC
Racha de viento máxima en m/sg (hora)
DESCASC
Velocidad máxima media en intervalos de 10 minutos(hora)
DESCASC
Precipitaciones diarias en mm
DESCASC
Precipitaciones de 00:00 a 06:00 en mm
DESCASC
Precipitaciones de 06:00 a 12:00 en mm
DESCASC
Precipitaciones de 12:00 a 18:00 en mm
DESCASC
Precipitaciones de 18:00 a 24:00 en mm
DESCASC
13-01-2021 12.5 (15:30) -5.3 (07:00) 3.6 2.78 (15:10) 1.67 (16:40) 0 0 0 0 0
12-01-2021 7.9 (16:20) -5.9 (08:50) 1 3.61 (13:00) 2.5 (13:00) 0 0 0 0 0
11-01-2021 6.9 (16:00) -1.4 (23:40) 2.8 8.06 (12:00) 5 (12:10) 0 0 0 0 0
10-01-2021 6.5 (16:10) -1.5 (01:50) 2.5 7.22 (15:00) 5 (13:20) 0.8 0 0.6 0.2 0
09-01-2021 2.9 (00:00) -0.3 (00:00) 1.3 8.61 (12:00) 6.39 (12:40) 5 2.8 0.4 0.2 1.6
08-01-2021 2.9 (22:30) 1.5 (00:00) 2.2 9.17 (10:30) 6.11 (18:40) 34 0 3.8 20 10.2
07-01-2021 3.5 (15:40) 1.8 (00:00) 2.6 10.83 (20:40) 6.94 (20:50) 2.4 1.8 0.4 0.2 0
06-01-2021 5.6 (15:20) -5.8 (-00:0) -0.1 5.56 (14:50) 3.61 (14:50) 1.2 0 0 0 1.2
05-01-2021 3 (17:30) -3 (-00:0) 0 4.72 (15:00) 3.61 (14:50) 0.2 0 0.2 0 0
04-01-2021 7.3 (16:10) -2.1 (-00:0) 2.6 9.17 (14:30) 7.22 (14:30) 0.2 0 0 0.2 0
03-01-2021 8.1 (15:30) -4.4 (-00:0) 1.9 7.78 (15:40) 5.28 (15:50) 0 0 0 0 0
02-01-2021 7 (15:30) -3.4 (-00:0) 1.8 8.61 (17:30) 6.39 (17:30) 0.2 0 0.2 0 0
01-01-2021 8.2 (15:20) 0.4 (00:00) 4.3 11.11 (00:30) 7.78 (00:30) 0 0 0 0 0
31-12-2020 8.3 (13:10) -4 (-00:0) 2.2 11.11 (23:50) 7.78 (23:20) 0.8 0 0 0 0.8
30-12-2020 8.3 (15:10) -3 (-00:0) 2.7 5.28 (15:40) 3.89 (02:00) 0.2 0 0.2 0 0
29-12-2020 9.1 (15:50) 1.1 (00:00) 5.1 10.83 (11:40) 7.78 (11:40) 0.2 0 0 0.2 0
28-12-2020 10 (13:20) 2.7 (00:00) 6.4 16.94 (06:30) 11.67 (04:50) 0.8 0 0.8 0 0
27-12-2020 10.6 (15:40) -4.2 (-00:0) 3.2 9.17 (23:10) 6.67 (23:20) 0 0 0 0 0
26-12-2020 9 (15:10) -1.8 (-00:0) 3.6 11.11 (00:50) 7.22 (05:40) 0 0 0 0 0
25-12-2020 10.6 (15:40) 2.2 (00:00) 6.4 12.22 (14:40) 8.33 (12:30) 0 0 0 0 0
24-12-2020 13 (15:40) 9 (00:00) 11 3.61 (16:00) 2.22 (16:00) 0 0 0 0 0
23-12-2020 12.5 (13:40) 3.8 (00:00) 8.1 4.44 (13:10) 3.33 (13:20) 0 0 0 0 0
22-12-2020 17.1 (17:40) 3.6 (00:00) 10.4 4.72 (22:20) 3.33 (22:20) 0.2 0 0.2 0 0
21-12-2020 12.9 (15:30) 2.3 (00:00) 7.6 4.72 (14:30) 3.33 (15:50) 0 0 0 0 0
20-12-2020 12.1 (15:10) 3.7 (00:00) 7.9 3.89 (05:40) 2.78 (05:40) 0.2 0.2 0 0 0
19-12-2020 10 (15:40) 6.8 (00:00) 8.4 9.72 (16:20) 5.28 (16:20) 11.4 0 1.4 3.6 6.4
18-12-2020 11.8 (16:40) 5.4 (00:00) 8.6 3.89 (06:20) 2.22 (17:10) 0.2 0 0.2 0 0
17-12-2020 11.7 (14:40) 5.6 (00:00) 8.6 4.72 (16:40) 3.89 (16:40) 0.2 0 0.2 0 0

Gráficas

Temp. máximas Temp. mínimas Temp. medias Precipitaciones Rachas de viento máximas Velocidades máximas media en intervalos de 10 minutos

Datos horarios

Fecha y hora oficial Temperatura (ºC) Velocidad del viento (km/h) Dirección del viento Racha (km/h) Dirección de racha Precipitación (mm) Presión (hPa) Tendencia (hPa) Humedad (%)
2021-01-15 23:00:00 -0.5 4 Oeste 12 Nordeste 0 -- -- 90
2021-01-15 22:00:00 0.6 2 Nordeste 7 Nordeste 0 -- -- 92
2021-01-15 21:00:00 0.9 2 Sudoeste 7 Noroeste 0 -- -- 89
2021-01-15 20:00:00 2.2 3 Oeste 8 Oeste 0 -- -- 87
2021-01-15 19:00:00 5.1 0 Calma 8 Nordeste 0 -- -- 76
2021-01-15 18:00:00 8.9 6 Nordeste 11 Nordeste 0 -- -- 63
2021-01-15 17:00:00 12 8 Nordeste 13 Nordeste 0 -- -- 53
2021-01-15 16:00:00 12.4 10 Nordeste 15 Nordeste 0 -- -- 55
2021-01-15 15:00:00 12.5 5 Norte 10 Norte 0 -- -- 46
2021-01-15 14:00:00 10.9 4 Nordeste 12 Nordeste 0 -- -- 56
2021-01-15 13:00:00 9.8 6 Nordeste 10 Nordeste 0 -- -- 62
2021-01-15 12:00:00 7.4 5 Nordeste 8 Nordeste 0 -- -- 65
2021-01-15 11:00:00 3.7 0 Calma 2 Oeste 0 -- -- 91
2021-01-15 10:00:00 -1 0 Calma 4 Nordeste 0 -- -- 98
2021-01-15 09:00:00 -5.2 0 Calma 3 Sudoeste 0 -- -- 94
2021-01-15 08:00:00 -5.2 0 Calma 3 Sudoeste 0 -- -- 94
2021-01-15 07:00:00 -4.6 0 Calma 3 Este 0 -- -- 94
2021-01-15 06:00:00 -4.2 0 Calma 8 Norte 0 -- -- 95
2021-01-15 05:00:00 -4.1 2 Norte 4 Sudoeste 0 -- -- 95
2021-01-15 04:00:00 -4.4 0 Calma 2 Oeste 0 -- -- 93
2021-01-15 03:00:00 -4 0 Calma 2 Oeste 0 -- -- 94
2021-01-15 02:00:00 -3.4 0 Calma 3 Oeste 0 -- -- 95
2021-01-15 01:00:00 -3 0 Calma 3 Oeste 0 -- -- 93
2021-01-15 00:00:00 -2.4 0 Calma 3 Oeste 0 -- -- 94
2021-01-14 23:00:00 -0.7 0 Calma 5 Norte 0 -- -- 93
2021-01-14 22:00:00 0 5 Norte 9 Noroeste 0 -- -- 94
2021-01-14 21:00:00 0.4 2 Noroeste 5 Noroeste 0 -- -- 94
2021-01-14 20:00:00 1.8 0 Calma 4 Noroeste 0 -- -- 87
2021-01-14 19:00:00 4 0 Calma 12 Norte 0 -- -- 83
2021-01-14 18:00:00 8.9 5 Norte 12 Norte 0 -- -- 67
2021-01-14 17:00:00 11.3 5 Norte 11 Norte 0 -- -- 57
2021-01-14 16:00:00 11.2 5 Noroeste 11 Noroeste 0 -- -- 48
2021-01-14 15:00:00 10.3 5 Noroeste 12 Oeste 0 -- -- 53
2021-01-14 14:00:00 9.2 5 Oeste 10 Noroeste 0 -- -- 58
2021-01-14 13:00:00 7.8 3 Oeste 6 Oeste 0 -- -- 67
2021-01-14 12:00:00 6.5 0 Calma 4 Este 0 -- -- 73
2021-01-14 11:00:00 3.6 0 Calma 3 Sudeste 0 -- -- 85
2021-01-14 10:00:00 -1.3 0 Calma 4 Sur 0 -- -- 98
2021-01-14 09:00:00 -4.3 2 Sudoeste 2 Sudoeste 0 -- -- 94
2021-01-14 08:00:00 -4.3 2 Sudoeste 3 Oeste 0 -- -- 93
2021-01-14 07:00:00 -3.3 2 Oeste 4 Oeste 0 -- -- 91
2021-01-14 06:00:00 -2.3 2 Sudoeste 5 Sur 0 -- -- 91
2021-01-14 05:00:00 -2.4 0 Calma 4 Sur 0 -- -- 94
2021-01-14 04:00:00 -3.5 2 Sur 4 Sur 0 -- -- 93
2021-01-14 03:00:00 -3.4 0 Calma 0 Calma 0 -- -- 93
2021-01-14 02:00:00 -3 0 Calma 2 Sudoeste 0 -- -- 91
2021-01-14 01:00:00 -2.8 0 Calma 2 Sudoeste 0 -- -- 92
2021-01-14 00:00:00 -2.4 2 Oeste 4 Oeste 0 -- -- 89
2021-01-13 23:00:00 -1.9 0 Calma 3 Sudeste 0 -- -- 87
2021-01-13 22:00:00 -1.3 0 Calma 3 Oeste 0 -- -- 87
2021-01-13 21:00:00 -0.2 2 Oeste 3 Sudoeste 0 -- -- 83
2021-01-13 20:00:00 1.5 2 Noroeste 5 Oeste 0 -- -- 77
2021-01-13 19:00:00 4.3 2 Oeste 7 Oeste 0 -- -- 68
2021-01-13 18:00:00 10.7 6 Noroeste 8 Noroeste 0 -- -- 45
2021-01-13 17:00:00 12.3 6 Norte 10 Noroeste 0 -- -- 42
2021-01-13 16:00:00 12.1 4 Nordeste 10 Noroeste 0 -- -- 41
2021-01-13 15:00:00 11.9 4 Norte 9 Noroeste 0 -- -- 38
2021-01-13 14:00:00 10.3 5 Noroeste 9 Noroeste 0 -- -- 40
2021-01-13 13:00:00 8.9 3 Noroeste 9 Sudoeste 0 -- -- 49
2021-01-13 12:00:00 6.2 0 Calma 6 Oeste 0 -- -- 63
2021-01-13 11:00:00 3 0 Calma 2 Sudoeste 0 -- -- 74
2021-01-13 10:00:00 -1 0 Calma 3 Oeste 0 -- -- 92
2021-01-13 09:00:00 -5.2 0 Calma 3 Sudoeste 0 -- -- 91
2021-01-13 08:00:00 -5.1 2 Noroeste 4 Noroeste 0 -- -- 91
2021-01-13 07:00:00 -5.3 0 Calma 3 Noroeste 0 -- -- 90
2021-01-13 06:00:00 -5.2 0 Calma 3 Noroeste 0 -- -- 92
2021-01-13 05:00:00 -5 0 Calma 3 Oeste 0 -- -- 91
2021-01-13 04:00:00 -4.3 0 Calma 2 Oeste 0 -- -- 92
2021-01-13 03:00:00 -4.1 0 Calma 4 Sudeste 0 -- -- 89
2021-01-13 02:00:00 -3.5 0 Calma 4 Sudoeste 0 -- -- 89
2021-01-13 01:00:00 -3 0 Calma 3 Sudoeste 0 -- -- 88
2021-01-13 00:00:00 -2.4 0 Calma 4 Sur 0 -- -- 85
2021-01-12 23:00:00 -1.6 3 Sur 8 Norte 0 -- -- 84
2021-01-12 22:00:00 -1.3 5 Norte 6 Norte 0 -- -- 83
2021-01-12 21:00:00 -0.9 0 Calma 6 Norte 0 -- -- 80
2021-01-12 20:00:00 0.6 2 Sudoeste 3 Oeste 0 -- -- 77
2021-01-12 19:00:00 3.3 0 Calma 8 Nordeste 0 -- -- 65
2021-01-12 18:00:00 6.3 6 Nordeste 11 Nordeste 0 -- -- 48
2021-01-12 17:00:00 7.9 4 Nordeste 10 Nordeste 0 -- -- 42
2021-01-12 16:00:00 7.7 6 Nordeste 13 Norte 0 -- -- 43
2021-01-12 15:00:00 7.4 5 Norte 13 Nordeste 0 -- -- 49
2021-01-12 14:00:00 6.5 5 Este 13 Nordeste 0 -- -- 52
2021-01-12 13:00:00 5.2 9 Nordeste 13 Nordeste 0 -- -- 58
2021-01-12 12:00:00 3.9 4 Este 9 Nordeste 0 -- -- 60
2021-01-12 11:00:00 1.8 5 Nordeste 12 Nordeste 0 -- -- 68
2021-01-12 10:00:00 -2.1 0 Calma 2 Oeste 0 -- -- 89
2021-01-12 09:00:00 -5.9 0 Calma 2 Sudeste 0 -- -- 90
2021-01-12 08:00:00 -5.6 0 Calma 5 Nordeste 0 -- -- 89
2021-01-12 07:00:00 -5.6 2 Nordeste 4 Nordeste 0 -- -- 90
2021-01-12 06:00:00 -5.4 2 Sudeste 4 Noroeste 0 -- -- 89
2021-01-12 05:00:00 -5.1 0 Calma 2 Oeste 0 -- -- 89
2021-01-12 04:00:00 -4.6 0 Calma 6 Nordeste 0 -- -- 87
2021-01-12 03:00:00 -3.7 4 Este 6 Este 0 -- -- 83
2021-01-12 02:00:00 -3 0 Calma 6 Norte 0 -- -- 79
2021-01-12 01:00:00 -2.1 3 Norte 13 Nordeste 0 -- -- 75
2021-01-12 00:00:00 -1.1 8 Nordeste 11 Nordeste 0 -- -- 72
2021-01-11 23:00:00 -1.2 7 Nordeste 12 Nordeste 0 -- -- 75
2021-01-11 22:00:00 -0.5 6 Este 12 Nordeste 0 -- -- 75
2021-01-11 21:00:00 0.8 8 Nordeste 10 Nordeste 0 -- -- 72
2021-01-11 20:00:00 1.5 7 Nordeste 9 Nordeste 0 -- -- 72
2021-01-11 19:00:00 2.9 6 Nordeste 10 Nordeste 0 -- -- 70
2021-01-11 18:00:00 5.5 6 Nordeste 19 Nordeste 0 -- -- 63
2021-01-11 17:00:00 6.5 11 Nordeste 20 Norte 0 -- -- 57
2021-01-11 16:00:00 6.9 11 Norte 22 Nordeste 0 -- -- 57
2021-01-11 15:00:00 6.2 12 Nordeste 21 Nordeste 0 -- -- 60
2021-01-11 14:00:00 5.6 13 Nordeste 27 Nordeste 0 -- -- 62
2021-01-11 13:00:00 4.6 15 Nordeste 27 Nordeste 0 -- -- 65
2021-01-11 12:00:00 3.7 18 Nordeste 29 Nordeste 0 -- -- 67
2021-01-11 11:00:00 3 14 Nordeste 21 Norte 0 -- -- 69
2021-01-11 10:00:00 1.6 12 Nordeste 19 Nordeste 0 -- -- 77
2021-01-11 09:00:00 -0.5 12 Nordeste 21 Nordeste 0 -- -- 88
2021-01-11 08:00:00 0.2 17 Nordeste 27 Nordeste 0 -- -- 85
2021-01-11 07:00:00 0.1 12 Nordeste 20 Norte 0 -- -- 87
2021-01-11 06:00:00 0.3 10 Norte 22 Norte 0 -- -- 88
2021-01-11 05:00:00 0.5 13 Nordeste 19 Norte 0 -- -- 90
2021-01-11 04:00:00 0.8 12 Nordeste 21 Nordeste 0 -- -- 90
2021-01-11 03:00:00 0.9 14 Nordeste 24 Nordeste 0 -- -- 92
2021-01-11 02:00:00 0.4 10 Nordeste 17 Nordeste 0 -- -- 94
2021-01-11 01:00:00 0 0 Calma 17 Norte 0 -- -- 93
2021-01-11 00:00:00 0 0 Calma 20 Nordeste 0 -- -- 91
2021-01-10 23:00:00 1 14 Nordeste 22 Nordeste 0 -- -- 88
2021-01-10 22:00:00 1.5 8 Nordeste 17 Nordeste 0 -- -- 85
2021-01-10 21:00:00 2.1 12 Nordeste 22 Nordeste 0 -- -- 83
2021-01-10 20:00:00 3.2 9 Nordeste 18 Nordeste 0 -- -- 86
2021-01-10 19:00:00 3.6 15 Nordeste 20 Nordeste 0 -- -- 84
2021-01-10 18:00:00 4.2 9 Nordeste 23 Nordeste 0 -- -- 77
2021-01-10 17:00:00 6.1 15 Nordeste 25 Nordeste 0 -- -- 69
2021-01-10 16:00:00 6.2 13 Nordeste 25 Nordeste 0 -- -- 71
2021-01-10 15:00:00 6 18 Nordeste 26 Nordeste 0 -- -- 74
2021-01-10 14:00:00 5.2 16 Nordeste 23 Nordeste 0.2 -- -- 77
2021-01-10 13:00:00 4.6 15 Norte 24 Norte 0 -- -- 86
2021-01-10 12:00:00 3.5 10 Norte 17 Norte 0 -- -- 92
2021-01-10 11:00:00 2.3 12 Nordeste 15 Nordeste 0.6 -- -- 98
2021-01-10 10:00:00 0.3 6 Este 11 Nordeste 0 -- -- 99
2021-01-10 09:00:00 0 4 Nordeste 10 Nordeste 0 -- -- 99
2021-01-10 08:00:00 -0.3 4 Nordeste 12 Nordeste 0 -- -- 99
2021-01-10 07:00:00 -0.5 8 Nordeste 23 Nordeste 0 -- -- 99
2021-01-10 06:00:00 -0.7 12 Nordeste 19 Nordeste 0 -- -- 99
2021-01-10 05:00:00 -0.6 10 Nordeste 15 Nordeste 0 -- -- 99
2021-01-10 04:00:00 -1.2 8 Nordeste 10 Nordeste 0 -- -- 99
2021-01-10 03:00:00 -1.4 0 Calma 15 Nordeste 0 -- -- 99
2021-01-10 02:00:00 -1.5 10 Nordeste 14 Nordeste 0 -- -- 99
2021-01-10 01:00:00 -1.1 6 Nordeste 9 Nordeste 0 -- -- 98
2021-01-10 00:00:00 -0.3 0 Calma 3 Nordeste 0 -- -- 99
2021-01-09 23:00:00 -0.1 0 Calma 5 Este 0 -- -- 98
2021-01-09 22:00:00 0 4 Este 6 Este 0 -- -- 98
2021-01-09 21:00:00 0.6 0 Calma 8 Noroeste 0.2 -- -- 98
2021-01-09 20:00:00 0.8 0 Calma 10 Oeste 0.2 -- -- 98
2021-01-09 19:00:00 0.6 5 Noroeste 11 Oeste 1.2 -- -- 97
2021-01-09 18:00:00 2.3 4 Norte 6 Noroeste 0 -- -- 97
2021-01-09 17:00:00 2.5 0 Calma 10 Sur 0.2 -- -- 98
2021-01-09 16:00:00 2.6 5 Oeste 19 Oeste 0 -- -- 98
2021-01-09 15:00:00 2.5 14 Oeste 25 Sudoeste 0 -- -- 98
2021-01-09 14:00:00 2 18 Sudoeste 28 Sudoeste 0 -- -- 98
2021-01-09 13:00:00 1.7 20 Sudoeste 31 Sudoeste 0 -- -- 99
2021-01-09 12:00:00 1.3 21 Sudoeste 31 Sudoeste 0.2 -- -- 99
2021-01-09 11:00:00 1.1 17 Sudoeste 28 Sudoeste 0 -- -- 100
2021-01-09 10:00:00 1.1 18 Sudoeste 26 Sudoeste 0 -- -- 100
2021-01-09 09:00:00 1.2 13 Sudoeste 21 Sudoeste 0 -- -- 100
2021-01-09 08:00:00 1.1 11 Sudoeste 19 Sudoeste 0 -- -- 100
2021-01-09 07:00:00 1.3 13 Oeste 18 Oeste 0.2 -- -- 100
2021-01-09 06:00:00 1.3 9 Sudoeste 15 Oeste 0.4 -- -- 100
2021-01-09 05:00:00 1.3 9 Oeste 19 Oeste 0.2 -- -- 100
2021-01-09 04:00:00 1.9 9 Oeste 13 Oeste 0.6 -- -- 100
2021-01-09 03:00:00 1.9 8 Oeste 14 Noroeste 0.2 -- -- 100
2021-01-09 02:00:00 1.9 10 Noroeste 16 Noroeste 0.2 -- -- 100
2021-01-09 01:00:00 2.1 12 Noroeste 18 Noroeste 1.2 -- -- 100
2021-01-09 00:00:00 2.9 8 Noroeste 14 Noroeste 0.6 -- -- 100
2021-01-08 23:00:00 2.9 8 Norte 17 Norte 1.2 -- -- 100
2021-01-08 22:00:00 2.8 11 Norte 16 Norte 1.2 -- -- 100
2021-01-08 21:00:00 2.6 9 Norte 21 Nordeste 1.2 -- -- 100
2021-01-08 20:00:00 2.4 16 Nordeste 30 Norte 2.8 -- -- 99
2021-01-08 19:00:00 2.4 15 Nordeste 31 Nordeste 3.2 -- -- 99
2021-01-08 18:00:00 2.5 20 Nordeste 29 Nordeste 5.2 -- -- 99
2021-01-08 17:00:00 2.4 13 Nordeste 32 Nordeste 3.6 -- -- 99
2021-01-08 16:00:00 2.3 18 Nordeste 30 Nordeste 3.8 -- -- 99
2021-01-08 15:00:00 2.3 16 Nordeste 29 Nordeste 3.2 -- -- 99
2021-01-08 14:00:00 2.3 18 Nordeste 31 Nordeste 2 -- -- 99
2021-01-08 13:00:00 2.2 18 Nordeste 30 Nordeste 2.2 -- -- 99
2021-01-08 12:00:00 2.2 21 Nordeste 30 Nordeste 0.2 -- -- 98
2021-01-08 11:00:00 2.1 21 Nordeste 33 Nordeste 0.8 -- -- 98
2021-01-08 10:00:00 1.8 18 Nordeste 30 Nordeste 0.4 -- -- 98
2021-01-08 09:00:00 1.6 14 Nordeste 24 Nordeste 1.2 -- -- 97
2021-01-08 08:00:00 1.6 12 Nordeste 23 Nordeste 1.2 -- -- 96
2021-01-08 07:00:00 1.7 17 Nordeste 30 Nordeste 0 -- -- 94
2021-01-08 06:00:00 1.8 15 Nordeste 26 Nordeste 0 -- -- 93
2021-01-08 05:00:00 1.9 13 Nordeste 20 Nordeste 0 -- -- 94
2021-01-08 04:00:00 1.9 10 Nordeste 16 Nordeste 0 -- -- 93
2021-01-08 03:00:00 2 6 Nordeste 18 Nordeste 0 -- -- 92
2021-01-08 02:00:00 2 10 Nordeste 15 Nordeste 0 -- -- 93
2021-01-08 01:00:00 1.9 6 Este 23 Nordeste 0 -- -- 92
2021-01-08 00:00:00 1.9 12 Nordeste 22 Nordeste 0 -- -- 91
2021-01-07 23:00:00 2 13 Nordeste 33 Nordeste 0 -- -- 91
2021-01-07 22:00:00 2.1 21 Nordeste 35 Nordeste 0 -- -- 91
2021-01-07 21:00:00 1.9 24 Nordeste 39 Nordeste 0 -- -- 92
2021-01-07 20:00:00 2.1 22 Nordeste 36 Nordeste 0 -- -- 91
2021-01-07 19:00:00 2.3 14 Nordeste 25 Nordeste 0 -- -- 93
2021-01-07 18:00:00 2.8 15 Nordeste 26 Nordeste 0 -- -- 93
2021-01-07 17:00:00 3.3 14 Nordeste 24 Nordeste 0 -- -- 92
2021-01-07 16:00:00 3.5 14 Nordeste 22 Norte 0 -- -- 93
2021-01-07 15:00:00 3.1 11 Nordeste 20 Nordeste 0 -- -- 95
2021-01-07 14:00:00 2.9 13 Nordeste 22 Nordeste 0 -- -- 95
2021-01-07 13:00:00 2.5 13 Nordeste 25 Nordeste 0.2 -- -- 96
2021-01-07 12:00:00 2.5 13 Nordeste 19 Nordeste 0.2 -- -- 96
2021-01-07 11:00:00 2.2 10 Nordeste 19 Nordeste 0 -- -- 97
2021-01-07 10:00:00 1.9 12 Nordeste 21 Nordeste 0 -- -- 97
2021-01-07 09:00:00 1.9 12 Nordeste 19 Nordeste 0.2 -- -- 97
2021-01-07 08:00:00 2.1 11 Nordeste 18 Nordeste 0 -- -- 97
2021-01-07 07:00:00 2.3 13 Nordeste 22 Nordeste 0 -- -- 97
2021-01-07 06:00:00 2.4 9 Nordeste 15 Nordeste 0.6 -- -- 97
2021-01-07 05:00:00 2.5 5 Nordeste 14 Nordeste 0.4 -- -- 97
2021-01-07 04:00:00 2.7 7 Nordeste 18 Nordeste 0.2 -- -- 96
2021-01-07 03:00:00 2.7 11 Nordeste 18 Nordeste 0 -- -- 97
2021-01-07 02:00:00 2.7 10 Nordeste 17 Este 0.2 -- -- 96
2021-01-07 01:00:00 2.7 10 Nordeste 17 Nordeste 0.4 -- -- 96
2021-01-07 00:00:00 2.5 6 Nordeste 10 Este 0.8 -- -- 95
2021-01-06 23:00:00 2.4 8 Nordeste 12 Nordeste 0.4 -- -- 91
2021-01-06 22:00:00 2.7 9 Nordeste 15 Nordeste 0 -- -- 86
2021-01-06 21:00:00 3.2 10 Nordeste 17 Nordeste 0 -- -- 79
2021-01-06 20:00:00 3.5 8 Nordeste 14 Nordeste 0 -- -- 77
2021-01-06 19:00:00 3.7 7 Nordeste 13 Nordeste 0 -- -- 78
2021-01-06 18:00:00 4.5 7 Nordeste 13 Nordeste 0 -- -- 74
2021-01-06 17:00:00 5.3 7 Nordeste 16 Nordeste 0 -- -- 70
2021-01-06 16:00:00 5.2 11 Nordeste 20 Nordeste 0 -- -- 71
2021-01-06 15:00:00 5.2 11 Nordeste 20 Nordeste 0 -- -- 69
2021-01-06 14:00:00 4.6 12 Nordeste 17 Nordeste 0 -- -- 69
2021-01-06 13:00:00 3.5 8 Nordeste 15 Nordeste 0 -- -- 70
2021-01-06 12:00:00 0.5 9 Nordeste 13 Nordeste 0 -- -- 88
2021-01-06 11:00:00 -1.1 6 Nordeste 10 Nordeste 0 -- -- 90
2021-01-06 10:00:00 -2.9 0 Calma 6 Nordeste 0 -- -- 94
2021-01-06 09:00:00 -4.5 0 Calma 4 Nordeste 0 -- -- 94
2021-01-06 08:00:00 -5.4 0 Calma 3 Norte 0 -- -- 95
2021-01-06 07:00:00 -5.4 0 Calma 3 Norte 0 -- -- 93
2021-01-06 06:00:00 -5.4 0 Calma 4 Nordeste 0 -- -- 93
2021-01-06 05:00:00 -5.1 0 Calma 7 Nordeste 0 -- -- 94
2021-01-06 04:00:00 -4.1 0 Calma 4 Este 0 -- -- 94
2021-01-06 03:00:00 -4.2 0 Calma 3 Noroeste 0 -- -- 94
2021-01-06 02:00:00 -3.7 0 Calma 5 Nordeste 0 -- -- 94
2021-01-06 01:00:00 -2.7 3 Nordeste 8 Nordeste 0 -- -- 93
2021-01-06 00:00:00 -1.8 5 Nordeste 7 Nordeste 0 -- -- 96
2021-01-05 23:00:00 -0.8 6 Este 9 Este 0 -- -- 97
2021-01-05 22:00:00 -2.7 2 Nordeste 3 Nordeste 0 -- -- 95
2021-01-05 21:00:00 -2.3 0 Calma 2 Nordeste 0 -- -- 94
2021-01-05 20:00:00 -1.5 0 Calma 3 Sudeste 0 -- -- 91
2021-01-05 19:00:00 0.3 0 Calma 6 Nordeste 0 -- -- 90
2021-01-05 18:00:00 2.8 4 Nordeste 12 Nordeste 0 -- -- 88
2021-01-05 17:00:00 2.7 7 Nordeste 16 Este 0 -- -- 90
2021-01-05 16:00:00 2.4 10 Nordeste 17 Nordeste 0 -- -- 91
2021-01-05 15:00:00 2.2 13 Nordeste 17 Nordeste 0 -- -- 94
2021-01-05 14:00:00 2.1 7 Nordeste 12 Nordeste 0 -- -- 99
2021-01-05 13:00:00 1.3 7 Nordeste 13 Nordeste 0 -- -- 99
2021-01-05 12:00:00 1 4 Nordeste 9 Nordeste 0 -- -- 99
2021-01-05 11:00:00 -0.3 3 Nordeste 6 Nordeste 0.2 -- -- 99
2021-01-05 10:00:00 -1.6 0 Calma 6 Nordeste 0 -- -- 98
2021-01-05 09:00:00 -2.6 0 Calma 6 Nordeste 0 -- -- 98
2021-01-05 08:00:00 -3 0 Calma 3 Este 0 -- -- 97
2021-01-05 07:00:00 -2.7 0 Calma 2 Noroeste 0 -- -- 97
2021-01-05 06:00:00 -2.4 0 Calma 5 Nordeste 0 -- -- 96
2021-01-05 05:00:00 -1.7 2 Sudoeste 4 Nordeste 0 -- -- 95
2021-01-05 04:00:00 0.1 2 Sudoeste 5 Sudoeste 0 -- -- 96
2021-01-05 03:00:00 1.2 2 Sur 5 Este 0 -- -- 94
2021-01-05 02:00:00 1.9 4 Sudeste 6 Nordeste 0 -- -- 93
2021-01-05 01:00:00 2.3 3 Este 6 Sur 0 -- -- 93
2021-01-05 00:00:00 2.2 4 Sudeste 6 Este 0 -- -- 92
2021-01-04 23:00:00 1.6 6 Este 7 Este 0 -- -- 95
2021-01-04 22:00:00 1 0 Calma 9 Sudoeste 0 -- -- 91
2021-01-04 21:00:00 1.3 9 Oeste 15 Oeste 0 -- -- 90
2021-01-04 20:00:00 2.3 9 Oeste 12 Oeste 0 -- -- 89
2021-01-04 19:00:00 4.5 8 Oeste 25 Oeste 0 -- -- 87
2021-01-04 18:00:00 5.5 16 Oeste 27 Oeste 0 -- -- 80
2021-01-04 17:00:00 6.8 15 Oeste 26 Oeste 0 -- -- 76
2021-01-04 16:00:00 6.8 20 Oeste 32 Oeste 0 -- -- 78
2021-01-04 15:00:00 6.8 20 Oeste 33 Oeste 0 -- -- 80
2021-01-04 14:00:00 6.2 21 Oeste 33 Oeste 0.2 -- -- 85
2021-01-04 13:00:00 5.6 17 Oeste 27 Oeste 0 -- -- 84
2021-01-04 12:00:00 4.8 12 Oeste 19 Oeste 0 -- -- 87
2021-01-04 11:00:00 2.8 8 Sudoeste 15 Sudoeste 0 -- -- 92
2021-01-04 10:00:00 1.2 7 Sur 11 Sur 0 -- -- 96
2021-01-04 09:00:00 0.2 0 Calma 14 Sudoeste 0 -- -- 96
2021-01-04 08:00:00 0.1 10 Sudoeste 15 Sudoeste 0 -- -- 96
2021-01-04 07:00:00 -1.6 8 Sudoeste 12 Sudoeste 0 -- -- 97
2021-01-04 06:00:00 -1.1 9 Sudoeste 14 Sudoeste 0 -- -- 96
2021-01-04 05:00:00 -1.5 0 Calma 8 Sur 0 -- -- 95
2021-01-04 04:00:00 -0.8 6 Sur 12 Sur 0 -- -- 94
2021-01-04 03:00:00 -0.6 6 Sur 10 Sudoeste 0 -- -- 93
2021-01-04 02:00:00 -2.1 3 Sur 6 Sur 0 -- -- 92
2021-01-04 01:00:00 -0.8 3 Sudoeste 12 Sur 0 -- -- 92
2021-01-04 00:00:00 -1 3 Sudoeste 6 Sudoeste 0 -- -- 90
2021-01-03 23:00:00 -0.1 4 Sudoeste 10 Sudoeste 0 -- -- 90
2021-01-03 22:00:00 -0.4 5 Oeste 10 Oeste 0 -- -- 90
2021-01-03 21:00:00 0.2 9 Sudoeste 10 Sudoeste 0 -- -- 87
2021-01-03 20:00:00 1.1 5 Sudoeste 12 Oeste 0 -- -- 84
2021-01-03 19:00:00 2.4 5 Oeste 14 Oeste 0 -- -- 77
2021-01-03 18:00:00 5.4 10 Oeste 20 Oeste 0 -- -- 67
2021-01-03 17:00:00 7.2 15 Oeste 25 Oeste 0 -- -- 59
2021-01-03 16:00:00 7.7 16 Oeste 28 Oeste 0 -- -- 55
2021-01-03 15:00:00 7.7 15 Oeste 23 Oeste 0 -- -- 51
2021-01-03 14:00:00 7.3 17 Oeste 26 Oeste 0 -- -- 55
2021-01-03 13:00:00 6.3 14 Oeste 21 Oeste 0 -- -- 63
2021-01-03 12:00:00 5.2 8 Oeste 15 Oeste 0 -- -- 70
2021-01-03 11:00:00 2.1 3 Sudoeste 10 Sudoeste 0 -- -- 83
2021-01-03 10:00:00 -0.8 4 Sudoeste 8 Sur 0 -- -- 90
2021-01-03 09:00:00 -3.5 3 Sur 10 Sur 0 -- -- 91
2021-01-03 08:00:00 -2.9 8 Sur 13 Sur 0 -- -- 92
2021-01-03 07:00:00 -3.8 4 Sur 9 Sur 0 -- -- 93
2021-01-03 06:00:00 -3.7 0 Calma 7 Sur 0 -- -- 90
2021-01-03 05:00:00 -3.6 3 Sur 7 Sur 0 -- -- 91
2021-01-03 04:00:00 -3.7 3 Sudoeste 6 Sur 0 -- -- 87
2021-01-03 03:00:00 -3.3 2 Este 5 Oeste 0 -- -- 90
2021-01-03 02:00:00 -2.6 5 Oeste 11 Norte 0 -- -- 84
2021-01-03 01:00:00 -1.3 11 Noroeste 14 Noroeste 0 -- -- 84
2021-01-03 00:00:00 -1.1 9 Noroeste 15 Noroeste 0 -- -- 83
2021-01-02 23:00:00 -0.8 7 Noroeste 14 Noroeste 0 -- -- 83
2021-01-02 22:00:00 -1.2 10 Noroeste 14 Noroeste 0 -- -- 85
2021-01-02 21:00:00 -0.3 9 Oeste 12 Oeste 0 -- -- 83
2021-01-02 20:00:00 -0.2 10 Noroeste 11 Noroeste 0 -- -- 81
2021-01-02 19:00:00 1.9 7 Noroeste 19 Noroeste 0 -- -- 74
2021-01-02 18:00:00 4.5 18 Noroeste 31 Noroeste 0 -- -- 68
2021-01-02 17:00:00 5.3 18 Noroeste 27 Noroeste 0 -- -- 63
2021-01-02 16:00:00 6.6 17 Noroeste 26 Noroeste 0 -- -- 61
2021-01-02 15:00:00 6.6 17 Noroeste 28 Noroeste 0 -- -- 57
2021-01-02 14:00:00 5.8 14 Noroeste 22 Noroeste 0 -- -- 66